KMEV/MEV METAR and TAF weather

Enter ICAO airport designator
Station Type Date Time Source
KMEV METAR 2022/12/10 02:55 UTC NOAA

KMEV 100255Z AUTO 31004KT 10SM FEW037 FEW047 FEW090 05/M10 A2996 RMK AO2


Station Type Date Time Source
KMEV Decoded METAR 2022/12/10 02:55 UTC NOAA

Station name not available
Dec 09, 2022 - 09:55 PM EST / 2022.12.10 0255 UTC
Wind: from the NW (310 degrees) at 5 MPH (4 KT):0
Visibility: 10 mile(s):0
Sky conditions: mostly clear
Temperature: 41 F (5 C)
Dew Point: 14 F (-10 C)
Relative Humidity: 32%
Pressure (altimeter): 29.96 in. Hg (1014 hPa)
ob: KMEV 100255Z AUTO 31004KT 10SM FEW037 FEW047 FEW090 05/M10 A2996 RMK AO2
cycle: 3

Station Type Date Time Source
KMEV TAF 2022/12/09 18:21 UTC NOAA

TAF KMEV 091720Z 0918/1018 VRB06KT P6SM SCT050 BKN140 BKN200
FM100800 16015G23KT P6SM SCT140 BKN200 WS020/22040KT
FM101400 17016G28KT 6SM -SHRA BKN100 WS018/22055KT

Example: see airport list